createdAt,value
2019-03-03T00:01:32.234Z,96597.87
2019-03-03T00:04:02.323Z,96591.38
2019-03-03T00:06:31.436Z,96580.13
2019-03-03T00:09:04.739Z,96572.56
2019-03-03T00:11:36.855Z,96567.39
2019-03-03T00:14:09.026Z,96564.22
2019-03-03T00:16:44.711Z,96554.55
2019-03-03T00:19:15.494Z,96036.59
2019-03-03T00:21:44.595Z,96562.00
2019-03-03T00:24:18.135Z,96556.92
2019-03-03T00:26:53.519Z,96554.61
2019-03-03T00:29:24.026Z,96558.41
2019-03-03T00:31:55.577Z,96561.27
2019-03-03T00:34:24.671Z,96559.03
2019-03-03T00:40:27.582Z,96573.09
2019-03-03T00:43:15.720Z,96574.56
2019-03-03T00:46:01.244Z,96556.27
2019-03-03T00:48:53.239Z,96549.36
2019-03-03T00:51:35.458Z,96582.23
2019-03-03T00:54:27.602Z,96543.50
2019-03-03T00:57:21.600Z,96558.59
2019-03-03T01:00:09.935Z,96559.06
2019-03-03T01:03:16.498Z,96558.88
2019-03-03T01:06:02.056Z,96558.46
2019-03-03T01:08:49.719Z,96550.27
2019-03-03T01:11:50.499Z,96562.92
2019-03-03T01:14:28.465Z,96559.56
2019-03-03T01:17:15.118Z,96561.42
2019-03-03T01:20:12.497Z,96567.64
2019-03-03T01:23:04.780Z,96575.70
2019-03-03T01:25:33.878Z,96571.59
2019-03-03T01:28:02.970Z,96574.80
2019-03-03T01:30:32.066Z,96572.87
2019-03-03T01:33:01.174Z,96577.50
2019-03-03T01:35:31.928Z,96571.52
2019-03-03T01:38:01.082Z,96567.20
2019-03-03T01:40:30.232Z,96562.80
2019-03-03T01:42:59.357Z,96563.69
2019-03-03T01:45:28.460Z,96564.25
2019-03-03T01:47:59.001Z,96558.77
2019-03-03T01:50:31.409Z,96559.19
2019-03-03T01:53:00.502Z,96559.75
2019-03-03T01:55:29.596Z,96548.59
2019-03-03T01:57:58.678Z,96547.17
2019-03-03T02:00:28.776Z,96549.17
2019-03-03T02:02:59.224Z,96542.73
2019-03-03T02:05:30.788Z,96538.63
2019-03-03T02:08:00.263Z,96529.80
2019-03-03T02:10:29.683Z,96524.55
2019-03-03T02:13:01.587Z,96529.20
2019-03-03T02:15:33.084Z,96522.59
2019-03-03T02:18:04.603Z,96521.50
2019-03-03T02:20:34.177Z,96513.16
2019-03-03T02:23:03.272Z,96518.54
2019-03-03T02:25:32.807Z,96518.20
2019-03-03T02:28:04.410Z,96519.25
2019-03-03T02:30:35.193Z,96512.91
2019-03-03T02:33:04.260Z,96512.18
2019-03-03T02:35:42.597Z,96515.20
2019-03-03T02:38:11.681Z,96513.38
2019-03-03T02:40:42.196Z,96508.92
2019-03-03T02:43:13.660Z,96502.30
2019-03-03T02:45:42.824Z,96498.42
2019-03-03T02:48:11.915Z,96497.59
2019-03-03T02:50:40.990Z,96487.05
2019-03-03T02:53:10.939Z,96482.94
2019-03-03T02:55:40.901Z,96482.18
2019-03-03T02:58:13.003Z,96478.28
2019-03-03T03:00:50.907Z,96472.41
2019-03-03T03:03:23.194Z,96468.80
2019-03-03T03:06:01.638Z,96469.66
2019-03-03T03:08:56.872Z,96457.27
2019-03-03T03:11:36.689Z,96457.63
2019-03-03T03:14:28.387Z,96457.52
2019-03-03T03:17:07.440Z,96465.23
2019-03-03T03:20:01.602Z,96461.27
2019-03-03T03:23:04.735Z,96459.37
2019-03-03T03:25:58.801Z,96459.09
2019-03-03T03:28:41.467Z,96468.66
2019-03-03T03:31:37.346Z,96464.63
2019-03-03T03:34:18.668Z,96463.94
2019-03-03T03:37:06.720Z,96463.78
2019-03-03T03:39:46.142Z,96464.52
2019-03-03T03:42:25.288Z,96463.69
2019-03-03T03:45:16.122Z,96454.94
2019-03-03T03:48:03.929Z,96449.66
2019-03-03T03:50:55.019Z,96440.55
2019-03-03T03:53:33.454Z,96429.44
2019-03-03T03:56:19.437Z,96428.63
2019-03-03T03:59:13.448Z,96435.69
2019-03-03T04:02:05.370Z,96430.00
2019-03-03T04:04:53.785Z,96425.38
2019-03-03T04:07:38.663Z,96424.17
2019-03-03T04:10:16.827Z,96417.53
2019-03-03T04:13:05.372Z,94985.48
2019-03-03T04:16:05.471Z,96423.05
2019-03-03T04:18:49.273Z,96423.11
2019-03-03T04:21:37.004Z,96410.05
2019-03-03T04:24:23.532Z,96410.87
2019-03-03T04:27:10.169Z,96420.75
2019-03-03T04:29:47.585Z,96427.82
2019-03-03T04:32:35.581Z,96433.44
2019-03-03T04:35:15.500Z,96440.77
2019-03-03T04:38:04.498Z,96434.46
2019-03-03T04:40:51.556Z,96432.48
2019-03-03T04:43:38.224Z,96424.14
2019-03-03T04:46:37.531Z,96427.06
2019-03-03T04:49:25.642Z,96424.73
2019-03-03T04:52:10.079Z,96422.48
2019-03-03T04:55:05.580Z,96421.47
2019-03-03T04:57:43.893Z,96418.91
2019-03-03T05:00:32.011Z,96423.12
2019-03-03T05:03:19.052Z,96421.36
2019-03-03T05:05:54.378Z,96429.24
2019-03-03T05:08:37.876Z,95006.01
2019-03-03T05:11:38.062Z,96436.84
2019-03-03T05:14:24.700Z,96438.02
2019-03-03T05:17:04.285Z,96435.61
2019-03-03T05:19:42.519Z,96435.19
2019-03-03T05:22:11.609Z,96438.80
2019-03-03T05:24:42.575Z,96436.06
2019-03-03T05:27:11.983Z,96418.69
2019-03-03T05:29:42.700Z,96414.26
2019-03-03T05:32:11.840Z,96416.32
2019-03-03T05:34:42.120Z,96413.23
2019-03-03T05:37:12.670Z,96417.98
2019-03-03T05:39:49.393Z,96412.10
2019-03-03T05:42:18.492Z,96408.98
2019-03-03T05:44:56.247Z,96402.81
2019-03-03T05:47:23.030Z,96391.10
2019-03-03T05:49:52.206Z,96399.42
2019-03-03T05:52:21.286Z,96394.94
2019-03-03T05:54:51.049Z,96400.55
2019-03-03T05:57:23.038Z,96400.88
2019-03-03T05:59:52.207Z,96401.00
2019-03-03T06:02:28.963Z,96398.75
2019-03-03T06:05:06.607Z,96411.37
2019-03-03T06:07:37.210Z,96409.39
2019-03-03T06:10:06.744Z,96405.69
2019-03-03T06:12:35.943Z,96410.19
2019-03-03T06:15:09.811Z,96404.04
2019-03-03T06:17:38.911Z,96398.11
2019-03-03T06:20:11.825Z,96399.34
2019-03-03T06:22:41.044Z,96390.52
2019-03-03T06:25:11.658Z,94958.59
2019-03-03T06:27:42.800Z,96387.82
2019-03-03T06:30:18.581Z,96384.56
2019-03-03T06:32:51.887Z,96384.25
2019-03-03T06:35:20.995Z,96378.73
2019-03-03T06:37:50.580Z,96378.95
2019-03-03T06:40:19.648Z,96372.42
2019-03-03T06:42:48.755Z,96367.06
2019-03-03T06:45:21.926Z,96369.55
2019-03-03T06:47:52.614Z,96364.97
2019-03-03T06:50:21.703Z,96368.10
2019-03-03T06:52:50.812Z,96366.28
2019-03-03T06:55:21.047Z,96360.09
2019-03-03T06:57:50.104Z,96351.38
2019-03-03T07:00:19.404Z,96349.01
2019-03-03T07:02:48.684Z,96358.27
2019-03-03T07:05:20.082Z,96360.16
2019-03-03T07:07:49.189Z,96354.62
2019-03-03T07:10:18.264Z,96353.67
2019-03-03T07:12:47.358Z,96366.73
2019-03-03T07:15:18.531Z,96370.41
2019-03-03T07:17:48.838Z,96371.59
2019-03-03T07:20:20.809Z,96108.70
2019-03-03T07:22:51.445Z,96369.41
2019-03-03T07:25:20.541Z,96367.61
2019-03-03T07:27:49.615Z,96377.55
2019-03-03T07:30:18.737Z,96380.59
2019-03-03T07:33:08.146Z,96374.29
2019-03-03T07:35:38.839Z,96382.16
2019-03-03T07:38:08.426Z,96382.19
2019-03-03T07:40:37.538Z,96379.38
2019-03-03T07:43:11.800Z,96381.86
2019-03-03T07:45:48.367Z,96381.22
2019-03-03T07:48:29.103Z,96389.03
2019-03-03T07:50:58.198Z,96392.08
2019-03-03T07:53:27.377Z,96397.84
2019-03-03T07:55:58.309Z,96398.08
2019-03-03T07:58:27.721Z,96402.96
2019-03-03T08:00:56.828Z,96402.50
2019-03-03T08:03:28.460Z,96401.80
2019-03-03T08:05:57.565Z,96399.59
2019-03-03T08:08:27.042Z,96403.37
2019-03-03T08:10:59.506Z,96395.53
2019-03-03T08:13:28.680Z,96397.94
2019-03-03T08:15:57.787Z,96402.42
2019-03-03T08:18:26.868Z,96406.70
2019-03-03T08:20:57.073Z,96410.30
2019-03-03T08:23:26.167Z,96408.09
2019-03-03T08:25:56.485Z,96403.20
2019-03-03T08:28:25.714Z,96404.47
2019-03-03T08:30:57.004Z,96398.30
2019-03-03T08:33:26.158Z,96406.70
2019-03-03T08:35:55.307Z,96417.17
2019-03-03T08:38:25.711Z,96414.16
2019-03-03T08:40:55.689Z,96413.03
2019-03-03T08:43:36.453Z,96414.89
2019-03-03T08:46:25.363Z,96408.88
2019-03-03T08:52:21.859Z,96403.37
2019-03-03T08:55:07.963Z,96397.56
2019-03-03T08:57:53.153Z,96395.45
2019-03-03T09:00:44.747Z,96402.20
2019-03-03T09:03:40.814Z,96405.55
2019-03-03T09:06:17.451Z,96395.94
2019-03-03T09:09:07.263Z,96398.80
2019-03-03T09:11:55.294Z,96402.86
2019-03-03T09:14:52.706Z,96399.99
2019-03-03T09:17:52.911Z,96395.11
2019-03-03T09:20:37.104Z,96393.41
2019-03-03T09:23:26.685Z,96401.11
2019-03-03T09:26:17.402Z,96399.16
2019-03-03T09:29:04.526Z,96394.34
2019-03-03T09:32:00.291Z,96398.08
2019-03-03T09:35:03.682Z,96400.64
2019-03-03T09:38:00.945Z,96407.45
2019-03-03T09:40:51.707Z,96408.44
2019-03-03T09:43:38.490Z,96415.11
2019-03-03T09:46:42.195Z,96412.04
2019-03-03T09:49:33.999Z,96405.26
2019-03-03T09:52:15.488Z,96409.38
2019-03-03T09:55:13.052Z,96412.14
2019-03-03T09:58:10.200Z,96402.63
2019-03-03T10:00:55.392Z,96413.28
2019-03-03T10:03:54.337Z,96408.70
2019-03-03T10:06:38.943Z,96410.50
2019-03-03T10:09:46.468Z,96410.72
2019-03-03T10:12:31.341Z,96408.05
2019-03-03T10:15:31.650Z,96405.50
2019-03-03T10:18:25.452Z,96410.58
2019-03-03T10:21:22.699Z,96409.53
2019-03-03T10:24:26.379Z,96415.31
2019-03-03T10:27:25.618Z,96194.05
2019-03-03T10:30:22.072Z,96413.49
2019-03-03T10:33:10.265Z,96408.20
2019-03-03T10:35:58.452Z,96414.05
2019-03-03T10:38:48.056Z,96403.45
2019-03-03T10:41:38.025Z,96402.14
2019-03-03T10:44:43.334Z,96393.20
2019-03-03T10:47:20.866Z,96396.73
2019-03-03T10:50:11.479Z,96401.08
2019-03-03T10:53:02.898Z,96390.64
2019-03-03T10:56:00.509Z,96400.91
2019-03-03T10:58:48.677Z,96393.04
2019-03-03T11:01:25.775Z,96392.52
2019-03-03T11:04:08.858Z,96390.52
2019-03-03T11:06:55.908Z,96390.42
2019-03-03T11:09:31.976Z,96393.61
2019-03-03T11:12:30.716Z,96391.48
2019-03-03T11:15:18.723Z,96388.09
2019-03-03T11:18:06.266Z,96387.27
2019-03-03T11:20:49.481Z,96373.53
2019-03-03T11:23:44.381Z,96378.78
2019-03-03T11:26:42.912Z,96380.17
2019-03-03T11:29:25.353Z,96374.36
2019-03-03T11:32:13.440Z,96366.86
2019-03-03T11:35:16.808Z,96360.27
2019-03-03T11:38:10.845Z,96357.36
2019-03-03T11:40:50.224Z,96353.97
2019-03-03T11:43:30.225Z,96341.73
2019-03-03T11:46:30.413Z,96338.84
2019-03-03T11:49:30.120Z,96336.55
2019-03-03T11:52:07.466Z,96335.23
2019-03-03T11:55:10.261Z,96330.67
2019-03-03T11:57:58.380Z,96330.15
2019-03-03T12:00:42.115Z,96333.55
2019-03-03T12:03:29.794Z,96327.28
2019-03-03T12:06:08.729Z,96325.98
2019-03-03T12:09:15.058Z,96328.61
2019-03-03T12:12:06.439Z,96315.39
2019-03-03T12:14:53.548Z,96315.65
2019-03-03T12:17:50.598Z,96315.66
2019-03-03T12:20:41.512Z,96309.53
2019-03-03T12:23:34.823Z,96303.27
2019-03-03T12:26:26.150Z,96295.84
2019-03-03T12:29:26.324Z,96289.48
2019-03-03T12:32:07.021Z,96276.53
2019-03-03T12:34:48.458Z,96279.45
2019-03-03T12:37:24.399Z,96274.46
2019-03-03T12:40:06.198Z,96194.28
2019-03-03T12:43:09.311Z,96254.60
2019-03-03T12:46:05.509Z,96256.68
2019-03-03T12:48:43.820Z,96257.52
2019-03-03T12:51:38.090Z,96246.38
2019-03-03T12:54:18.837Z,96249.83
2019-03-03T12:57:17.270Z,96253.83
2019-03-03T13:00:03.909Z,96252.77
2019-03-03T13:02:53.512Z,96249.02
2019-03-03T13:05:39.187Z,96231.75
2019-03-03T13:08:25.889Z,96227.02
2019-03-03T13:11:16.621Z,96227.82
2019-03-03T13:13:58.393Z,96215.66
2019-03-03T13:16:34.553Z,96207.20
2019-03-03T13:19:31.345Z,96207.42
2019-03-03T13:22:19.375Z,96194.73
2019-03-03T13:25:05.955Z,96187.50
2019-03-03T13:27:47.638Z,96188.11
2019-03-03T13:30:41.777Z,96184.30
2019-03-03T13:33:40.339Z,96182.44
2019-03-03T13:36:17.533Z,96204.41
2019-03-03T13:39:08.279Z,96171.28
2019-03-03T13:42:02.020Z,96173.82
2019-03-03T13:44:40.087Z,96170.27
2019-03-03T13:47:10.335Z,96164.95
2019-03-03T13:49:41.844Z,96166.30
2019-03-03T13:52:11.002Z,96163.42
2019-03-03T13:54:41.781Z,96155.88
2019-03-03T13:57:15.562Z,96160.73
2019-03-03T13:59:44.832Z,96155.72
2019-03-03T14:02:19.722Z,96147.22
2019-03-03T14:04:51.243Z,96141.66
2019-03-03T14:07:25.027Z,96132.58
2019-03-03T14:10:05.013Z,96142.39
2019-03-03T14:12:35.935Z,96137.95
2019-03-03T14:15:15.009Z,96136.59
2019-03-03T14:17:46.926Z,96137.14
2019-03-03T14:20:18.363Z,96137.64
2019-03-03T14:22:50.867Z,96128.50
2019-03-03T14:25:19.981Z,96113.25
2019-03-03T14:27:50.251Z,96115.16
2019-03-03T14:30:24.118Z,96109.20
2019-03-03T14:32:56.285Z,96101.80
2019-03-03T14:35:26.871Z,95952.96
2019-03-03T14:37:55.964Z,96088.34
2019-03-03T14:40:25.174Z,96077.24
2019-03-03T14:42:55.359Z,96080.30
2019-03-03T14:45:28.294Z,96081.95
2019-03-03T14:47:57.335Z,96080.95
2019-03-03T14:50:28.190Z,96088.36
2019-03-03T14:53:00.423Z,96080.00
2019-03-03T14:55:29.543Z,96079.78
2019-03-03T14:57:58.893Z,96084.77
2019-03-03T15:00:30.522Z,96082.58
2019-03-03T15:03:03.608Z,96079.44
2019-03-03T15:05:33.982Z,96085.56
2019-03-03T15:08:04.815Z,96084.63
2019-03-03T15:10:34.011Z,96086.94
2019-03-03T15:13:04.100Z,96083.00
2019-03-03T15:15:41.768Z,96075.03
2019-03-03T15:18:11.940Z,96079.60
2019-03-03T15:20:41.049Z,96068.36
2019-03-03T15:23:10.156Z,96067.47
2019-03-03T15:25:39.274Z,96069.28
2019-03-03T15:28:10.547Z,96062.50
2019-03-03T15:30:40.751Z,96056.64
2019-03-03T15:33:11.613Z,96048.53
2019-03-03T15:35:40.805Z,96061.97
2019-03-03T15:38:18.881Z,96059.59
2019-03-03T15:40:47.970Z,96063.34
2019-03-03T15:43:17.089Z,96062.50
2019-03-03T15:45:48.705Z,96066.78
2019-03-03T15:48:17.814Z,96059.48
2019-03-03T15:50:47.632Z,96056.34
2019-03-03T15:53:19.894Z,96057.34
2019-03-03T15:55:49.102Z,96048.05
2019-03-03T15:58:19.327Z,96055.91
2019-03-03T16:00:53.800Z,96047.76
2019-03-03T16:03:27.855Z,96049.14
2019-03-03T16:06:02.226Z,96037.48
2019-03-03T16:08:31.418Z,96034.74
2019-03-03T16:11:00.642Z,96031.61
2019-03-03T16:13:38.803Z,96026.88
2019-03-03T16:16:07.915Z,96016.42
2019-03-03T16:18:39.422Z,96009.55
2019-03-03T16:21:08.859Z,96007.23
2019-03-03T16:23:49.050Z,95995.81
2019-03-03T16:26:20.689Z,95979.94
2019-03-03T16:28:49.778Z,95977.09
2019-03-03T16:31:21.010Z,95968.03
2019-03-03T16:33:58.904Z,95959.58
2019-03-03T16:36:28.115Z,95955.08
2019-03-03T16:38:58.379Z,95962.61
2019-03-03T16:41:27.500Z,95967.98
2019-03-03T16:43:59.143Z,95968.02
2019-03-03T16:46:31.375Z,95959.66
2019-03-03T16:49:00.421Z,95947.42
2019-03-03T16:51:29.515Z,95950.09
2019-03-03T16:53:59.645Z,95946.14
2019-03-03T16:56:29.268Z,95952.02
2019-03-03T16:58:58.810Z,95947.26
2019-03-03T17:01:34.391Z,95940.50
2019-03-03T17:04:03.618Z,95948.64
2019-03-03T17:06:32.709Z,95949.08
2019-03-03T17:09:03.915Z,95957.34
2019-03-03T17:11:32.723Z,95887.12
2019-03-03T17:14:01.841Z,95951.08
2019-03-03T17:16:30.942Z,95951.52
2019-03-03T17:19:00.161Z,95946.96
2019-03-03T17:21:32.511Z,95951.74
2019-03-03T17:24:03.315Z,95954.05
2019-03-03T17:26:35.174Z,95957.38
2019-03-03T17:29:05.618Z,95958.44
2019-03-03T17:31:41.265Z,95960.80
2019-03-03T17:34:13.295Z,95960.40
2019-03-03T17:36:44.311Z,95960.19
2019-03-03T17:39:15.640Z,95962.13
2019-03-03T17:41:44.756Z,95972.27
2019-03-03T17:44:15.622Z,95971.16
2019-03-03T17:46:44.953Z,95978.73
2019-03-03T17:49:16.325Z,95981.36
2019-03-03T17:51:48.620Z,95986.99
2019-03-03T17:54:17.791Z,95981.53
2019-03-03T17:56:46.913Z,95970.66
2019-03-03T17:59:20.178Z,95981.80
2019-03-03T18:02:08.530Z,95972.03
2019-03-03T18:04:37.762Z,95974.37
2019-03-03T18:07:13.368Z,95965.36
2019-03-03T18:09:46.870Z,95962.81
2019-03-03T18:12:19.269Z,95948.48
2019-03-03T18:14:52.722Z,95941.38
2019-03-03T18:17:25.864Z,95932.21
2019-03-03T18:19:56.875Z,95926.20
2019-03-03T18:22:28.477Z,95918.33
2019-03-03T18:24:59.689Z,95917.02
2019-03-03T18:27:28.565Z,95912.97
2019-03-03T18:29:58.058Z,95916.62
2019-03-03T18:32:27.169Z,95913.97
2019-03-03T18:35:01.191Z,95914.05
2019-03-03T18:37:32.759Z,95909.39
2019-03-03T18:40:01.892Z,95901.37
2019-03-03T18:42:31.032Z,95901.41
2019-03-03T18:45:00.333Z,95889.84
2019-03-03T18:47:32.060Z,95883.95
2019-03-03T18:50:01.378Z,95883.89
2019-03-03T18:52:35.633Z,95882.20
2019-03-03T18:55:09.612Z,95881.20
2019-03-03T18:57:38.777Z,95878.69
2019-03-03T19:00:23.251Z,95875.61
2019-03-03T19:02:53.941Z,95874.73
2019-03-03T19:05:26.006Z,95877.05
2019-03-03T19:07:56.923Z,95884.43
2019-03-03T19:10:29.653Z,95874.38
2019-03-03T19:12:58.901Z,95873.28
2019-03-03T19:15:28.029Z,95877.87
2019-03-03T19:18:00.683Z,95870.74
2019-03-03T19:20:32.098Z,95861.93
2019-03-03T19:23:02.795Z,95861.41
2019-03-03T19:25:38.338Z,95863.58
2019-03-03T19:28:28.097Z,94690.31
2019-03-03T19:30:57.180Z,95865.75
2019-03-03T19:33:47.247Z,95868.63
2019-03-03T19:36:16.464Z,95861.38
2019-03-03T19:38:47.164Z,95855.37
2019-03-03T19:41:19.151Z,95846.20
2019-03-03T19:43:51.394Z,95836.71
2019-03-03T19:46:20.543Z,95830.45
2019-03-03T19:48:52.541Z,95825.47
2019-03-03T19:51:21.749Z,95827.55
2019-03-03T19:53:50.877Z,95829.50
2019-03-03T19:56:22.102Z,95824.63
2019-03-03T19:58:51.227Z,95823.25
2019-03-03T20:01:22.843Z,95813.83
2019-03-03T20:03:51.958Z,95807.34
2019-03-03T20:06:22.361Z,95809.45
2019-03-03T20:08:51.466Z,95800.43
2019-03-03T20:11:22.948Z,95804.28
2019-03-03T20:13:52.129Z,95795.25
2019-03-03T20:16:21.235Z,95793.27
2019-03-03T20:18:50.321Z,95789.19
2019-03-03T20:21:21.160Z,95790.48
2019-03-03T20:23:56.113Z,95787.95
2019-03-03T20:26:28.379Z,95786.82
2019-03-03T20:28:57.764Z,95769.33
2019-03-03T20:31:28.498Z,95777.00
2019-03-03T20:33:58.708Z,95770.81
2019-03-03T20:36:28.226Z,95773.98
2019-03-03T20:38:59.790Z,95770.89
2019-03-03T20:41:30.617Z,95765.72
2019-03-03T20:44:05.370Z,95760.97
2019-03-03T20:46:37.453Z,95753.86
2019-03-03T20:49:08.702Z,95741.70
2019-03-03T20:51:38.045Z,95748.67
2019-03-03T20:54:07.140Z,95743.17
2019-03-03T20:56:38.235Z,95743.75
2019-03-03T20:59:07.435Z,95750.38
2019-03-03T21:01:36.541Z,95741.21
2019-03-03T21:04:05.634Z,95741.02
2019-03-03T21:06:38.642Z,95738.24
2019-03-03T21:09:09.879Z,95725.12
2019-03-03T21:11:39.764Z,95727.14
2019-03-03T21:14:08.865Z,95720.14
2019-03-03T21:16:46.888Z,95708.02
2019-03-03T21:19:15.717Z,95698.27
2019-03-03T21:21:52.011Z,95699.53
2019-03-03T21:24:21.058Z,95695.27
2019-03-03T21:26:50.191Z,95691.93
2019-03-03T21:29:20.642Z,95686.27
2019-03-03T21:31:50.237Z,95678.00
2019-03-03T21:34:21.290Z,95671.52
2019-03-03T21:36:50.403Z,95672.80
2019-03-03T21:39:23.043Z,95656.69
2019-03-03T21:41:52.248Z,95660.91
2019-03-03T21:44:21.333Z,95651.59
2019-03-03T21:46:51.776Z,95639.35
2019-03-03T21:49:23.872Z,95638.00
2019-03-03T21:51:55.501Z,95625.27
2019-03-03T21:54:24.624Z,95630.14
2019-03-03T21:56:55.180Z,95638.28
2019-03-03T21:59:27.923Z,95631.47
2019-03-03T22:01:58.150Z,95632.78
2019-03-03T22:04:27.260Z,95616.34
2019-03-03T22:06:58.159Z,95611.76
2019-03-03T22:09:30.662Z,95614.25
2019-03-03T22:12:02.954Z,95597.14
2019-03-03T22:14:32.247Z,95600.75
2019-03-03T22:17:01.313Z,95589.00
2019-03-03T22:19:30.452Z,95575.80
2019-03-03T22:21:59.669Z,95582.41
2019-03-03T22:24:28.758Z,95587.35
2019-03-03T22:26:58.916Z,95587.55
2019-03-03T22:29:28.106Z,95587.45
2019-03-03T22:32:04.311Z,95584.22
2019-03-03T22:34:33.461Z,95587.03
2019-03-03T22:37:02.563Z,95582.19
2019-03-03T22:39:33.490Z,95588.67
2019-03-03T22:42:02.632Z,95572.56
2019-03-03T22:44:31.863Z,95566.98
2019-03-03T22:47:00.992Z,95563.75
2019-03-03T22:49:31.702Z,95559.23
2019-03-03T22:52:03.868Z,95546.50
2019-03-03T22:54:36.704Z,95543.39
2019-03-03T22:57:08.740Z,95539.05
2019-03-03T22:59:38.123Z,95532.08
2019-03-03T23:02:08.062Z,95531.66
2019-03-03T23:05:20.683Z,95522.20
2019-03-03T23:08:21.673Z,95517.33
2019-03-03T23:11:18.875Z,95506.36
2019-03-03T23:13:57.373Z,95503.13
2019-03-03T23:17:04.966Z,95503.45
2019-03-03T23:19:58.928Z,95494.45
2019-03-03T23:23:08.149Z,95486.91
2019-03-03T23:25:48.647Z,95493.58
2019-03-03T23:28:21.299Z,95492.00
2019-03-03T23:30:52.769Z,95487.67
2019-03-03T23:33:21.960Z,95486.58
2019-03-03T23:35:51.149Z,95490.45
2019-03-03T23:38:20.308Z,95492.45
2019-03-03T23:40:50.626Z,95493.19
2019-03-03T23:43:20.099Z,95492.12
2019-03-03T23:45:50.228Z,95430.72
2019-03-03T23:48:19.353Z,95493.09
2019-03-03T23:50:50.282Z,95492.64
2019-03-03T23:53:19.433Z,95485.12
2019-03-03T23:55:48.544Z,95486.52
2019-03-03T23:58:19.983Z,95486.58
